NZQN/ZQN METAR and TAF weather

Enter ICAO airport designator
Station Type Date Time Source
NZQN METAR UTC NOAA

Error!


Station Type Date Time Source
NZQN Decoded METAR UTC NOAA

Error!

Station Type Date Time Source
NZQN TAF 2019/04/22 18:22 UTC NOAA

TAF NZQN 221715Z 2218/2312 04005KT 9999 SKC
TEMPO 2218/2219 1500 BR
BECMG 2300/2302 25010KT
FM230600 VRB02KT 9999 SCT050

Example: see airport list